createdAt,value
2019-04-28T00:00:41.457Z,1010.38
2019-04-28T00:01:45.832Z,1010.42
2019-04-28T00:02:50.799Z,1010.43
2019-04-28T00:03:54.469Z,1010.47
2019-04-28T00:04:58.777Z,1010.50
2019-04-28T00:06:03.061Z,1010.50
2019-04-28T00:07:07.363Z,1010.52
2019-04-28T00:08:11.640Z,1010.54
2019-04-28T00:09:16.002Z,1010.55
2019-04-28T00:10:20.984Z,1010.54
2019-04-28T00:11:24.626Z,1010.51
2019-04-28T00:12:28.978Z,1010.49
2019-04-28T00:13:33.262Z,1010.48
2019-04-28T00:14:37.587Z,1010.50
2019-04-28T00:15:41.964Z,1010.52
2019-04-28T00:16:46.316Z,1010.54
2019-04-28T00:17:51.582Z,1010.55
2019-04-28T00:18:54.962Z,1010.55
2019-04-28T00:20:01.235Z,1010.56
2019-04-28T00:21:03.612Z,1010.56
2019-04-28T00:22:07.958Z,1010.55
2019-04-28T00:23:12.266Z,1010.56
2019-04-28T00:24:16.597Z,1010.57
2019-04-28T00:25:21.505Z,1010.57
2019-04-28T00:26:25.295Z,1010.59
2019-04-28T00:27:31.489Z,1010.62
2019-04-28T00:28:33.902Z,1010.62
2019-04-28T00:29:41.312Z,1010.62
2019-04-28T00:30:42.419Z,1010.62
2019-04-28T00:31:46.713Z,1010.62
2019-04-28T00:32:51.853Z,1010.64
2019-04-28T00:33:55.415Z,1010.65
2019-04-28T00:34:59.741Z,1010.65
2019-04-28T00:36:04.055Z,1010.67
2019-04-28T00:37:08.416Z,1010.67
2019-04-28T00:38:13.092Z,1010.70
2019-04-28T00:39:17.135Z,1010.68
2019-04-28T00:40:21.797Z,1010.68
2019-04-28T00:41:25.836Z,1010.69
2019-04-28T00:42:31.461Z,1010.68
2019-04-28T00:43:34.359Z,1010.66
2019-04-28T00:44:38.791Z,1010.65
2019-04-28T00:45:43.082Z,1010.63
2019-04-28T00:46:47.362Z,1010.63
2019-04-28T00:47:51.758Z,1010.61
2019-04-28T00:48:56.076Z,1010.62
2019-04-28T00:50:02.145Z,1010.59
2019-04-28T00:51:04.735Z,1010.61
2019-04-28T00:52:11.165Z,1010.63
2019-04-28T00:53:13.396Z,1010.62
2019-04-28T00:54:17.711Z,1010.62
2019-04-28T00:55:22.009Z,1010.62
2019-04-28T00:56:26.280Z,1010.60
2019-04-28T00:57:31.111Z,1010.59
2019-04-28T00:58:34.887Z,1010.60
2019-04-28T00:59:52.224Z,1010.60
2019-04-28T01:00:43.558Z,1010.58
2019-04-28T01:01:47.896Z,1010.58
2019-04-28T01:02:52.192Z,1010.57
2019-04-28T01:03:56.517Z,1010.54
2019-04-28T01:05:01.507Z,1010.54
2019-04-28T01:06:04.958Z,1010.53
2019-04-28T01:07:09.341Z,1010.51
2019-04-28T01:08:13.697Z,1010.52
2019-04-28T01:09:18.012Z,1010.51
2019-04-28T01:10:22.317Z,1010.51
2019-04-28T01:11:26.641Z,1010.54
2019-04-28T01:12:31.217Z,1010.54
2019-04-28T01:13:35.278Z,1010.57
2019-04-28T01:14:40.959Z,1010.58
2019-04-28T01:15:43.829Z,1010.60
2019-04-28T01:16:49.818Z,1010.60
2019-04-28T01:17:52.510Z,1010.62
2019-04-28T01:18:56.812Z,1010.62
2019-04-28T01:20:01.056Z,1010.62
2019-04-28T01:21:05.397Z,1010.63
2019-04-28T01:22:10.336Z,1010.61
2019-04-28T01:23:14.079Z,1010.62
2019-04-28T01:24:20.082Z,1010.56
2019-04-28T01:25:22.761Z,1010.58
2019-04-28T01:26:27.069Z,1010.56
2019-04-28T01:27:31.310Z,1010.56
2019-04-28T01:28:35.674Z,1010.57
2019-04-28T01:29:40.378Z,1010.59
2019-04-28T01:30:44.355Z,1010.63
2019-04-28T01:31:49.434Z,1010.63
2019-04-28T01:32:52.990Z,1010.63
2019-04-28T01:33:57.327Z,1010.62
2019-04-28T01:35:01.619Z,1010.60
2019-04-28T01:36:05.829Z,1010.58
2019-04-28T01:37:10.215Z,1010.58
2019-04-28T01:38:14.513Z,1010.60
2019-04-28T01:39:20.080Z,1010.60
2019-04-28T01:40:23.119Z,1010.61
2019-04-28T01:41:27.466Z,1010.61
2019-04-28T01:42:31.693Z,1010.61
2019-04-28T01:43:36.067Z,1010.63
2019-04-28T01:44:40.402Z,1010.64
2019-04-28T01:45:44.700Z,1010.67
2019-04-28T01:46:49.631Z,1010.71
2019-04-28T01:47:53.322Z,1010.71
2019-04-28T01:48:59.776Z,1010.72
2019-04-28T01:50:02.113Z,1010.70
2019-04-28T01:51:06.089Z,1010.70
2019-04-28T01:52:10.535Z,1010.69
2019-04-28T01:53:14.773Z,1010.70
2019-04-28T01:54:20.028Z,1010.71
2019-04-28T01:55:23.341Z,1010.71
2019-04-28T01:56:27.587Z,1010.73
2019-04-28T01:57:31.841Z,1010.74
2019-04-28T01:58:36.197Z,1010.75
2019-04-28T01:59:40.529Z,1010.76
2019-04-28T02:00:44.691Z,1010.77
2019-04-28T02:01:49.890Z,1010.78
2019-04-28T02:02:53.322Z,1010.79
2019-04-28T02:03:57.518Z,1010.79
2019-04-28T02:05:01.916Z,1010.81
2019-04-28T02:06:06.135Z,1010.81
2019-04-28T02:07:11.140Z,1010.83
2019-04-28T02:08:14.824Z,1010.82
2019-04-28T02:09:19.540Z,1010.85
2019-04-28T02:10:23.494Z,1010.85
2019-04-28T02:11:29.558Z,1010.87
2019-04-28T02:12:32.105Z,1010.87
2019-04-28T02:13:36.303Z,1010.88
2019-04-28T02:14:40.613Z,1010.87
2019-04-28T02:15:44.978Z,1010.87
2019-04-28T02:16:50.402Z,1010.87
2019-04-28T02:17:53.613Z,1010.89
2019-04-28T02:18:59.583Z,1010.91
2019-04-28T02:20:02.192Z,1010.92
2019-04-28T02:21:06.416Z,1010.93
2019-04-28T02:22:10.760Z,1010.92
2019-04-28T02:23:15.089Z,1010.92
2019-04-28T02:24:19.469Z,1010.94
2019-04-28T02:25:23.735Z,1010.94
2019-04-28T02:26:29.565Z,1010.95
2019-04-28T02:27:32.283Z,1010.97
2019-04-28T02:28:36.581Z,1010.98
2019-04-28T02:29:41.732Z,1010.98
2019-04-28T02:30:48.878Z,1010.99
2019-04-28T02:31:51.087Z,1010.99
2019-04-28T02:32:53.801Z,1011.00
2019-04-28T02:34:00.671Z,1011.00
2019-04-28T02:35:02.374Z,1011.01
2019-04-28T02:36:08.910Z,1011.01
2019-04-28T02:37:11.529Z,1011.02
2019-04-28T02:38:15.243Z,1011.03
2019-04-28T02:39:20.696Z,1011.05
2019-04-28T02:40:23.946Z,1011.08
2019-04-28T02:41:30.648Z,1011.08
2019-04-28T02:42:32.421Z,1011.08
2019-04-28T02:43:36.781Z,1011.08
2019-04-28T02:44:41.063Z,1011.08
2019-04-28T02:45:45.352Z,1011.09
2019-04-28T02:46:50.760Z,1011.08
2019-04-28T02:47:53.998Z,1011.11
2019-04-28T02:49:00.820Z,1011.13
2019-04-28T02:50:02.616Z,1011.15
2019-04-28T02:51:06.857Z,1011.16
2019-04-28T02:52:11.260Z,1011.16
2019-04-28T02:53:15.526Z,1011.18
2019-04-28T02:54:20.344Z,1011.20
2019-04-28T02:55:24.041Z,1011.21
2019-04-28T02:56:30.839Z,1011.24
2019-04-28T02:57:32.672Z,1011.25
2019-04-28T02:58:37.041Z,1011.29
2019-04-28T02:59:44.716Z,1011.29
2019-04-28T03:01:01.460Z,1011.30
2019-04-28T03:01:50.913Z,1011.32
2019-04-28T03:02:54.290Z,1011.32
2019-04-28T03:04:00.326Z,1011.32
2019-04-28T03:05:02.985Z,1011.34
2019-04-28T03:06:07.281Z,1011.35
2019-04-28T03:07:14.466Z,1011.37
2019-04-28T03:08:15.933Z,1011.38
2019-04-28T03:09:20.399Z,1011.39
2019-04-28T03:10:24.412Z,1011.41
2019-04-28T03:11:31.251Z,1011.39
2019-04-28T03:12:33.168Z,1011.41
2019-04-28T03:13:37.494Z,1011.41
2019-04-28T03:14:44.066Z,1011.41
2019-04-28T03:15:45.955Z,1011.40
2019-04-28T03:16:50.966Z,1011.42
2019-04-28T03:17:54.687Z,1011.43
2019-04-28T03:19:01.260Z,1011.44
2019-04-28T03:20:03.213Z,1011.47
2019-04-28T03:21:07.499Z,1011.47
2019-04-28T03:22:11.865Z,1011.46
2019-04-28T03:23:16.195Z,1011.45
2019-04-28T03:24:21.257Z,1011.46
2019-04-28T03:25:24.741Z,1011.43
2019-04-28T03:26:31.035Z,1011.43
2019-04-28T03:27:33.398Z,1011.43
2019-04-28T03:28:37.745Z,1011.42
2019-04-28T03:29:42.095Z,1011.40
2019-04-28T03:30:46.393Z,1011.42
2019-04-28T03:32:16.162Z,1011.41
2019-04-28T03:32:59.963Z,1011.41
2019-04-28T03:34:03.437Z,1011.42
2019-04-28T03:35:04.133Z,1011.42
2019-04-28T03:36:09.275Z,1011.44
2019-04-28T03:37:11.958Z,1011.46
2019-04-28T03:38:16.380Z,1011.45
2019-04-28T03:39:20.680Z,1011.47
2019-04-28T03:40:24.913Z,1011.49
2019-04-28T03:41:31.066Z,1011.50
2019-04-28T03:42:33.575Z,1011.50
2019-04-28T03:43:40.432Z,1011.53
2019-04-28T03:44:42.197Z,1011.53
2019-04-28T03:45:46.428Z,1011.53
2019-04-28T03:46:51.184Z,1011.51
2019-04-28T03:47:55.074Z,1011.54
2019-04-28T03:49:00.729Z,1011.54
2019-04-28T03:50:03.713Z,1011.54
2019-04-28T03:51:10.818Z,1011.54
2019-04-28T03:52:12.396Z,1011.57
2019-04-28T03:53:16.705Z,1011.59
2019-04-28T03:54:21.007Z,1011.59
2019-04-28T03:55:25.227Z,1011.60
2019-04-28T03:56:30.984Z,1011.60
2019-04-28T03:57:33.831Z,1011.61
2019-04-28T03:58:40.487Z,1011.62
2019-04-28T03:59:43.780Z,1011.63
2019-04-28T04:00:46.855Z,1011.64
2019-04-28T04:01:56.489Z,1011.65
2019-04-28T04:02:55.408Z,1011.65
2019-04-28T04:04:01.250Z,1011.65
2019-04-28T04:05:04.255Z,1011.62
2019-04-28T04:06:10.499Z,1011.60
2019-04-28T04:07:12.765Z,1011.59
2019-04-28T04:08:17.108Z,1011.58
2019-04-28T04:09:24.202Z,1011.57
2019-04-28T04:10:25.683Z,1011.55
2019-04-28T04:11:31.165Z,1011.54
2019-04-28T04:12:34.255Z,1011.53
2019-04-28T04:13:41.215Z,1011.55
2019-04-28T04:14:42.902Z,1011.56
2019-04-28T04:15:50.604Z,1011.55
2019-04-28T04:16:51.395Z,1011.57
2019-04-28T04:17:55.795Z,1011.54
2019-04-28T04:19:00.796Z,1011.56
2019-04-28T04:20:04.359Z,1011.54
2019-04-28T04:21:11.046Z,1011.54
2019-04-28T04:22:13.051Z,1011.55
2019-04-28T04:23:17.298Z,1011.56
2019-04-28T04:24:21.549Z,1011.58
2019-04-28T04:25:25.984Z,1011.58
2019-04-28T04:26:31.092Z,1011.57
2019-04-28T04:27:34.610Z,1011.59
2019-04-28T04:28:41.375Z,1011.60
2019-04-28T04:29:43.576Z,1011.60
2019-04-28T04:30:47.424Z,1011.59
2019-04-28T04:31:51.715Z,1011.60
2019-04-28T04:32:56.061Z,1011.60
2019-04-28T04:34:03.069Z,1011.63
2019-04-28T04:35:04.637Z,1011.63
2019-04-28T04:36:11.564Z,1011.65
2019-04-28T04:37:13.333Z,1011.67
2019-04-28T04:38:17.649Z,1011.70
2019-04-28T04:39:22.056Z,1011.70
2019-04-28T04:40:26.350Z,1011.73
2019-04-28T04:41:30.746Z,1011.73
2019-04-28T04:42:34.959Z,1011.73
2019-04-28T04:43:41.615Z,1011.74
2019-04-28T04:44:43.445Z,1011.72
2019-04-28T04:45:50.115Z,1011.75
2019-04-28T04:46:52.091Z,1011.74
2019-04-28T04:47:56.394Z,1011.76
2019-04-28T04:49:00.993Z,1011.78
2019-04-28T04:50:05.053Z,1011.75
2019-04-28T04:51:10.798Z,1011.75
2019-04-28T04:52:13.651Z,1011.75
2019-04-28T04:53:17.863Z,1011.74
2019-04-28T04:54:22.241Z,1011.75
2019-04-28T04:55:26.461Z,1011.76
2019-04-28T04:56:30.737Z,1011.78
2019-04-28T04:57:35.010Z,1011.80
2019-04-28T04:58:40.691Z,1011.85
2019-04-28T04:59:43.756Z,1011.87
2019-04-28T05:00:50.884Z,1011.90
2019-04-28T05:01:52.277Z,1011.92
2019-04-28T05:02:56.539Z,1011.96
2019-04-28T05:04:00.943Z,1011.97
2019-04-28T05:05:05.257Z,1011.97
2019-04-28T05:06:10.048Z,1012.00
2019-04-28T05:07:13.887Z,1012.01
2019-04-28T05:08:20.189Z,1012.04
2019-04-28T05:09:22.551Z,1012.06
2019-04-28T05:10:26.866Z,1012.07
2019-04-28T05:11:31.151Z,1012.09
2019-04-28T05:12:35.498Z,1012.07
2019-04-28T05:13:40.013Z,1012.10
2019-04-28T05:14:44.151Z,1012.12
2019-04-28T05:15:48.354Z,1012.13
2019-04-28T05:16:52.737Z,1012.12
2019-04-28T05:17:57.033Z,1012.13
2019-04-28T05:19:01.466Z,1012.14
2019-04-28T05:20:05.726Z,1012.14
2019-04-28T05:21:10.594Z,1012.14
2019-04-28T05:22:14.295Z,1012.14
2019-04-28T05:23:19.615Z,1012.10
2019-04-28T05:24:22.919Z,1012.10
2019-04-28T05:25:30.982Z,1012.09
2019-04-28T05:26:31.436Z,1012.10
2019-04-28T05:27:35.852Z,1012.11
2019-04-28T05:28:43.935Z,1012.10
2019-04-28T05:29:44.518Z,1012.06
2019-04-28T05:30:50.225Z,1012.08
2019-04-28T05:31:54.964Z,1012.07
2019-04-28T05:32:57.522Z,1012.08
2019-04-28T05:34:04.192Z,1012.09
2019-04-28T05:35:05.957Z,1012.12
2019-04-28T05:36:11.757Z,1012.13
2019-04-28T05:37:14.529Z,1012.12
2019-04-28T05:38:20.123Z,1012.14
2019-04-28T05:39:23.328Z,1012.15
2019-04-28T05:40:29.532Z,1012.16
2019-04-28T05:41:31.996Z,1012.16
2019-04-28T05:42:36.321Z,1012.16
2019-04-28T05:43:40.626Z,1012.17
2019-04-28T05:44:44.879Z,1012.21
2019-04-28T05:45:49.898Z,1012.23
2019-04-28T05:46:53.611Z,1012.24
2019-04-28T05:47:59.438Z,1012.23
2019-04-28T05:49:02.252Z,1012.24
2019-04-28T05:50:06.577Z,1012.24
2019-04-28T05:51:10.825Z,1012.24
2019-04-28T05:52:15.122Z,1012.26
2019-04-28T05:53:21.685Z,1012.25
2019-04-28T05:54:23.805Z,1012.25
2019-04-28T05:55:28.123Z,1012.25
2019-04-28T05:56:32.411Z,1012.24
2019-04-28T05:57:36.712Z,1012.23
2019-04-28T05:58:40.942Z,1012.23
2019-04-28T05:59:50.012Z,1012.23
2019-04-28T06:00:51.749Z,1012.24
2019-04-28T06:01:55.976Z,1012.25
2019-04-28T06:03:00.713Z,1012.23
2019-04-28T06:04:04.666Z,1012.23
2019-04-28T06:05:10.178Z,1012.25
2019-04-28T06:06:13.223Z,1012.28
2019-04-28T06:07:17.481Z,1012.27
2019-04-28T06:08:21.827Z,1012.30
2019-04-28T06:09:26.052Z,1012.32
2019-04-28T06:10:30.419Z,1012.33
2019-04-28T06:11:34.664Z,1012.36
2019-04-28T06:12:40.536Z,1012.36
2019-04-28T06:13:43.321Z,1012.39
2019-04-28T06:14:47.635Z,1012.41
2019-04-28T06:15:51.928Z,1012.45
2019-04-28T06:16:56.235Z,1012.47
2019-04-28T06:18:00.527Z,1012.46
2019-04-28T06:19:04.810Z,1012.47
2019-04-28T06:20:11.591Z,1012.49
2019-04-28T06:21:13.344Z,1012.51
2019-04-28T06:22:17.942Z,1012.51
2019-04-28T06:23:22.011Z,1012.50
2019-04-28T06:24:26.244Z,1012.53
2019-04-28T06:25:30.626Z,1012.55
2019-04-28T06:26:34.938Z,1012.57
2019-04-28T06:27:39.153Z,1012.55
2019-04-28T06:28:43.429Z,1012.57
2019-04-28T06:29:47.824Z,1012.56
2019-04-28T06:30:51.945Z,1012.56
2019-04-28T06:31:56.285Z,1012.58
2019-04-28T06:33:07.696Z,1012.58
2019-04-28T06:34:04.905Z,1012.59
2019-04-28T06:35:09.240Z,1012.59
2019-04-28T06:36:13.535Z,1012.60
2019-04-28T06:37:17.835Z,1012.58
2019-04-28T06:38:22.077Z,1012.59
2019-04-28T06:39:26.331Z,1012.57
2019-04-28T06:40:30.700Z,1012.57
2019-04-28T06:41:35.010Z,1012.57
2019-04-28T06:42:39.234Z,1012.59
2019-04-28T06:43:43.633Z,1012.58
2019-04-28T06:44:47.727Z,1012.57
2019-04-28T06:45:52.080Z,1012.56
2019-04-28T06:46:56.529Z,1012.57
2019-04-28T06:48:00.805Z,1012.57
2019-04-28T06:49:05.068Z,1012.59
2019-04-28T06:50:09.360Z,1012.60
2019-04-28T06:51:13.748Z,1012.60
2019-04-28T06:52:18.077Z,1012.60
2019-04-28T06:53:22.371Z,1012.61
2019-04-28T06:54:26.707Z,1012.61
2019-04-28T06:55:30.935Z,1012.63
2019-04-28T06:56:35.219Z,1012.64
2019-04-28T06:57:39.510Z,1012.61
2019-04-28T06:58:43.876Z,1012.63
2019-04-28T06:59:48.207Z,1012.65
2019-04-28T07:00:52.538Z,1012.61
2019-04-28T07:01:56.799Z,1012.63
2019-04-28T07:03:01.074Z,1012.64
2019-04-28T07:04:05.387Z,1012.66
2019-04-28T07:05:09.683Z,1012.67
2019-04-28T07:06:13.997Z,1012.69
2019-04-28T07:07:18.361Z,1012.68
2019-04-28T07:08:22.664Z,1012.70
2019-04-28T07:09:27.074Z,1012.72
2019-04-28T07:10:31.222Z,1012.77
2019-04-28T07:11:35.607Z,1012.77
2019-04-28T07:12:39.933Z,1012.81
2019-04-28T07:13:44.165Z,1012.81
2019-04-28T07:14:48.535Z,1012.83
2019-04-28T07:15:52.862Z,1012.86
2019-04-28T07:16:57.206Z,1012.92
2019-04-28T07:18:01.437Z,1012.93
2019-04-28T07:19:05.737Z,1012.94
2019-04-28T07:20:10.115Z,1012.96
2019-04-28T07:21:14.432Z,1012.96
2019-04-28T07:22:18.768Z,1012.97
2019-04-28T07:23:23.005Z,1012.97
2019-04-28T07:24:27.377Z,1012.99
2019-04-28T07:25:31.747Z,1012.97
2019-04-28T07:26:36.071Z,1012.98
2019-04-28T07:27:40.389Z,1013.00
2019-04-28T07:28:44.639Z,1013.01
2019-04-28T07:29:48.921Z,1013.02
2019-04-28T07:30:53.317Z,1013.02
2019-04-28T07:31:57.624Z,1013.07
2019-04-28T07:33:01.962Z,1013.09
2019-04-28T07:34:06.273Z,1013.10
2019-04-28T07:35:10.558Z,1013.09
2019-04-28T07:36:14.925Z,1013.10
2019-04-28T07:37:19.177Z,1013.12
2019-04-28T07:38:23.482Z,1013.14
2019-04-28T07:39:27.829Z,1013.15
2019-04-28T07:40:32.117Z,1013.17
2019-04-28T07:41:36.427Z,1013.19
2019-04-28T07:42:40.716Z,1013.24
2019-04-28T07:43:45.053Z,1013.26
2019-04-28T07:44:49.333Z,1013.25
2019-04-28T07:45:53.628Z,1013.29
2019-04-28T07:46:58.142Z,1013.28
2019-04-28T07:48:02.290Z,1013.31
2019-04-28T07:49:06.680Z,1013.33
2019-04-28T07:50:10.947Z,1013.33
2019-04-28T07:51:15.335Z,1013.33
2019-04-28T07:52:19.612Z,1013.32
2019-04-28T07:53:23.994Z,1013.34
2019-04-28T07:54:28.300Z,1013.34
2019-04-28T07:55:32.563Z,1013.33
2019-04-28T07:56:36.953Z,1013.36
2019-04-28T07:57:41.282Z,1013.35
2019-04-28T07:58:45.542Z,1013.33
2019-04-28T07:59:49.848Z,1013.35
2019-04-28T08:00:54.158Z,1013.34
2019-04-28T08:01:58.428Z,1013.34
2019-04-28T08:03:02.719Z,1013.39
2019-04-28T08:04:07.093Z,1013.39
2019-04-28T08:05:11.307Z,1013.45
2019-04-28T08:06:15.630Z,1013.45
2019-04-28T08:07:20.049Z,1013.46
2019-04-28T08:08:24.381Z,1013.47
2019-04-28T08:09:28.663Z,1013.49
2019-04-28T08:10:32.994Z,1013.52
2019-04-28T08:11:37.223Z,1013.51
2019-04-28T08:12:41.509Z,1013.55
2019-04-28T08:13:45.907Z,1013.56
2019-04-28T08:14:50.246Z,1013.59
2019-04-28T08:15:54.526Z,1013.63
2019-04-28T08:16:58.853Z,1013.65
2019-04-28T08:18:03.183Z,1013.69
2019-04-28T08:19:07.474Z,1013.71
2019-04-28T08:20:11.763Z,1013.72
2019-04-28T08:21:16.085Z,1013.74
2019-04-28T08:22:20.426Z,1013.76
2019-04-28T08:23:24.755Z,1013.76
2019-04-28T08:24:29.133Z,1013.80
2019-04-28T08:25:33.462Z,1013.83
2019-04-28T08:26:37.815Z,1013.84
2019-04-28T08:27:42.154Z,1013.84
2019-04-28T08:28:46.455Z,1013.84
2019-04-28T08:29:58.271Z,1013.86
2019-04-28T08:30:55.153Z,1013.85
2019-04-28T08:31:59.370Z,1013.87
2019-04-28T08:33:03.690Z,1013.88
2019-04-28T08:34:08.099Z,1013.89
2019-04-28T08:35:12.423Z,1013.92
2019-04-28T08:36:16.629Z,1013.93
2019-04-28T08:37:20.987Z,1013.94
2019-04-28T08:38:25.361Z,1013.95
2019-04-28T08:39:29.600Z,1013.96
2019-04-28T08:40:33.940Z,1013.98
2019-04-28T08:41:38.174Z,1013.98
2019-04-28T08:42:42.467Z,1013.98
2019-04-28T08:43:46.734Z,1013.98
2019-04-28T08:44:51.124Z,1014.00
2019-04-28T08:45:55.398Z,1014.01
2019-04-28T08:46:59.847Z,1014.03
2019-04-28T08:48:04.078Z,1014.06
2019-04-28T08:49:08.467Z,1014.06
2019-04-28T08:50:12.786Z,1014.08
2019-04-28T08:51:17.108Z,1014.11
2019-04-28T08:52:21.448Z,1014.10
2019-04-28T08:53:25.784Z,1014.13
2019-04-28T08:54:29.995Z,1014.15
2019-04-28T08:55:34.284Z,1014.17
2019-04-28T08:56:38.586Z,1014.17
2019-04-28T08:57:42.909Z,1014.18
2019-04-28T08:58:47.309Z,1014.19
2019-04-28T08:59:51.660Z,1014.19
2019-04-28T09:00:55.921Z,1014.19
2019-04-28T09:02:00.236Z,1014.21
2019-04-28T09:03:04.596Z,1014.23
2019-04-28T09:04:15.179Z,1014.23
2019-04-28T09:05:13.149Z,1014.23
2019-04-28T09:06:17.522Z,1014.23
2019-04-28T09:07:21.763Z,1014.25
2019-04-28T09:08:26.133Z,1014.26
2019-04-28T09:09:30.399Z,1014.24
2019-04-28T09:10:34.701Z,1014.22
2019-04-28T09:11:39.082Z,1014.23
2019-04-28T09:12:43.352Z,1014.26
2019-04-28T09:13:47.683Z,1014.28
2019-04-28T09:14:51.993Z,1014.30
2019-04-28T09:15:56.324Z,1014.30
2019-04-28T09:17:00.587Z,1014.31
2019-04-28T09:18:04.920Z,1014.31
2019-04-28T09:19:09.172Z,1014.32
2019-04-28T09:20:13.459Z,1014.36
2019-04-28T09:21:17.827Z,1014.34
2019-04-28T09:22:22.162Z,1014.35
2019-04-28T09:23:26.429Z,1014.38
2019-04-28T09:24:30.712Z,1014.37
2019-04-28T09:25:35.029Z,1014.38
2019-04-28T09:26:39.399Z,1014.38
2019-04-28T09:27:43.675Z,1014.40
2019-04-28T09:28:48.022Z,1014.41
2019-04-28T09:29:52.273Z,1014.44
2019-04-28T09:30:56.595Z,1014.43
2019-04-28T09:32:00.855Z,1014.46
2019-04-28T09:33:05.196Z,1014.47
2019-04-28T09:34:09.495Z,1014.45
2019-04-28T09:35:13.842Z,1014.48
2019-04-28T09:36:18.098Z,1014.48
2019-04-28T09:37:22.474Z,1014.47
2019-04-28T09:38:26.720Z,1014.47
2019-04-28T09:39:31.109Z,1014.49
2019-04-28T09:40:35.502Z,1014.49
2019-04-28T09:41:39.792Z,1014.50
2019-04-28T09:42:44.101Z,1014.50
2019-04-28T09:43:48.334Z,1014.50
2019-04-28T09:44:52.712Z,1014.53
2019-04-28T09:45:56.990Z,1014.54
2019-04-28T09:47:01.493Z,1014.57
2019-04-28T09:48:05.740Z,1014.59
2019-04-28T09:49:10.008Z,1014.56
2019-04-28T09:50:14.414Z,1014.58
2019-04-28T09:51:18.722Z,1014.60
2019-04-28T09:52:22.981Z,1014.61
2019-04-28T09:53:27.289Z,1014.62
2019-04-28T09:54:31.665Z,1014.63
2019-04-28T09:55:35.992Z,1014.65
2019-04-28T09:56:40.336Z,1014.67
2019-04-28T09:57:44.662Z,1014.67
2019-04-28T09:58:48.924Z,1014.71
2019-04-28T09:59:53.199Z,1014.69
2019-04-28T10:00:57.500Z,1014.73
2019-04-28T10:02:01.822Z,1014.73
2019-04-28T10:03:06.185Z,1014.77
2019-04-28T10:04:10.557Z,1014.77
2019-04-28T10:05:14.842Z,1014.78
2019-04-28T10:06:19.068Z,1014.81
2019-04-28T10:07:23.395Z,1014.83
2019-04-28T10:08:27.753Z,1014.82
2019-04-28T10:09:32.016Z,1014.82
2019-04-28T10:10:36.452Z,1014.83
2019-04-28T10:11:40.709Z,1014.85
2019-04-28T10:12:45.085Z,1014.85
2019-04-28T10:13:49.328Z,1014.86
2019-04-28T10:14:53.620Z,1014.86
2019-04-28T10:15:57.914Z,1014.88
2019-04-28T10:17:02.266Z,1014.89
2019-04-28T10:18:06.553Z,1014.88
2019-04-28T10:19:10.912Z,1014.89
2019-04-28T10:20:15.283Z,1014.93
2019-04-28T10:21:19.569Z,1014.94
2019-04-28T10:22:23.879Z,1014.96
2019-04-28T10:23:28.179Z,1014.94
2019-04-28T10:24:32.435Z,1014.95
2019-04-28T10:25:36.728Z,1014.95
2019-04-28T10:26:41.128Z,1014.96
2019-04-28T10:27:45.451Z,1014.98
2019-04-28T10:28:49.734Z,1015.00
2019-04-28T10:29:54.098Z,1015.03
2019-04-28T10:30:58.437Z,1015.01
2019-04-28T10:32:02.775Z,1015.04
2019-04-28T10:33:07.022Z,1015.04
2019-04-28T10:34:11.387Z,1015.05
2019-04-28T10:35:15.629Z,1015.04
2019-04-28T10:36:20.012Z,1015.09
2019-04-28T10:37:24.257Z,1015.10
2019-04-28T10:38:28.547Z,1015.10
2019-04-28T10:39:32.810Z,1015.14
2019-04-28T10:40:37.202Z,1015.11
2019-04-28T10:41:41.496Z,1015.12
2019-04-28T10:42:45.787Z,1015.13
2019-04-28T10:43:50.159Z,1015.13
2019-04-28T10:44:54.517Z,1015.15
2019-04-28T10:45:58.864Z,1015.13
2019-04-28T10:47:03.265Z,1015.16
2019-04-28T10:48:07.589Z,1015.15
2019-04-28T10:49:11.895Z,1015.16
2019-04-28T10:50:16.180Z,1015.18
2019-04-28T10:51:20.466Z,1015.14
2019-04-28T10:52:24.827Z,1015.16
2019-04-28T10:53:29.190Z,1015.17
2019-04-28T10:54:33.522Z,1015.19
2019-04-28T10:55:37.882Z,1015.20
2019-04-28T10:56:42.129Z,1015.21
2019-04-28T10:57:46.380Z,1015.22
2019-04-28T10:58:50.687Z,1015.19
2019-04-28T10:59:54.968Z,1015.20
2019-04-28T11:00:59.249Z,1015.20
2019-04-28T11:02:03.593Z,1015.23
2019-04-28T11:03:07.977Z,1015.24
2019-04-28T11:04:12.355Z,1015.25
2019-04-28T11:05:16.690Z,1015.27
2019-04-28T11:06:20.913Z,1015.30
2019-04-28T11:07:25.347Z,1015.34
2019-04-28T11:08:29.707Z,1015.36
2019-04-28T11:09:33.974Z,1015.37
2019-04-28T11:10:38.317Z,1015.39
2019-04-28T11:11:42.700Z,1015.40
2019-04-28T11:12:46.935Z,1015.38
2019-04-28T11:13:51.449Z,1015.39
2019-04-28T11:14:55.743Z,1015.40
2019-04-28T11:16:00.071Z,1015.37
2019-04-28T11:17:04.338Z,1015.42
2019-04-28T11:18:08.694Z,1015.41
2019-04-28T11:19:13.102Z,1015.45
2019-04-28T11:20:17.396Z,1015.46
2019-04-28T11:21:21.693Z,1015.46
2019-04-28T11:22:26.087Z,1015.50
2019-04-28T11:23:30.416Z,1015.53
2019-04-28T11:24:34.782Z,1015.54
2019-04-28T11:25:39.101Z,1015.55
2019-04-28T11:26:43.463Z,1015.56
2019-04-28T11:27:47.730Z,1015.60
2019-04-28T11:28:52.164Z,1015.64
2019-04-28T11:29:56.411Z,1015.67
2019-04-28T11:31:00.764Z,1015.65
2019-04-28T11:32:05.106Z,1015.67
2019-04-28T11:33:09.404Z,1015.71
2019-04-28T11:34:13.837Z,1015.71
2019-04-28T11:35:21.816Z,1015.71
2019-04-28T11:36:22.393Z,1015.75
2019-04-28T11:37:26.709Z,1015.76
2019-04-28T11:38:31.130Z,1015.79
2019-04-28T11:39:35.379Z,1015.79
2019-04-28T11:40:39.737Z,1015.81
2019-04-28T11:41:43.984Z,1015.81
2019-04-28T11:42:48.373Z,1015.80
2019-04-28T11:43:52.623Z,1015.81
2019-04-28T11:44:57.007Z,1015.81
2019-04-28T11:46:01.270Z,1015.81
2019-04-28T11:47:05.528Z,1015.83
2019-04-28T11:48:09.834Z,1015.82
2019-04-28T11:49:14.111Z,1015.88
2019-04-28T11:50:18.415Z,1015.92
2019-04-28T11:51:22.705Z,1015.93
2019-04-28T11:52:26.993Z,1015.92
2019-04-28T11:53:31.374Z,1015.99
2019-04-28T11:54:35.704Z,1016.00
2019-04-28T11:55:39.999Z,1015.99
2019-04-28T11:56:44.233Z,1016.01
2019-04-28T11:57:48.560Z,1016.04
2019-04-28T11:58:52.918Z,1016.04
2019-04-28T12:00:00.214Z,1016.04
2019-04-28T12:01:03.678Z,1016.05
2019-04-28T12:02:07.966Z,1016.05
2019-04-28T12:03:12.365Z,1016.02
2019-04-28T12:04:16.679Z,1016.05
2019-04-28T12:05:28.347Z,1016.06
2019-04-28T12:06:25.421Z,1016.06
2019-04-28T12:07:29.761Z,1016.10
2019-04-28T12:08:34.115Z,1016.12
2019-04-28T12:09:38.439Z,1016.14
2019-04-28T12:10:42.771Z,1016.16
2019-04-28T12:11:47.124Z,1016.13
2019-04-28T12:12:51.455Z,1016.14
2019-04-28T12:13:55.796Z,1016.15
2019-04-28T12:15:00.169Z,1016.16
2019-04-28T12:16:04.481Z,1016.18
2019-04-28T12:17:08.883Z,1016.21
2019-04-28T12:18:13.258Z,1016.22
2019-04-28T12:19:17.468Z,1016.27
2019-04-28T12:20:21.850Z,1016.25
2019-04-28T12:21:26.183Z,1016.25
2019-04-28T12:22:30.507Z,1016.25
2019-04-28T12:23:34.830Z,1016.23
2019-04-28T12:24:39.186Z,1016.22
2019-04-28T12:25:43.562Z,1016.20
2019-04-28T12:26:47.884Z,1016.19
2019-04-28T12:27:52.232Z,1016.17
2019-04-28T12:28:56.489Z,1016.19
2019-04-28T12:30:00.871Z,1016.17
2019-04-28T12:31:05.222Z,1016.16
2019-04-28T12:32:09.442Z,1016.19
2019-04-28T12:33:13.864Z,1016.17
2019-04-28T12:34:18.286Z,1016.22
2019-04-28T12:35:22.628Z,1016.22
2019-04-28T12:36:26.959Z,1016.22
2019-04-28T12:37:31.330Z,1016.22
2019-04-28T12:38:35.685Z,1016.22
2019-04-28T12:39:43.014Z,1016.21
2019-04-28T12:40:46.516Z,1016.21
2019-04-28T12:41:50.826Z,1016.17
2019-04-28T12:42:55.184Z,1016.17
2019-04-28T12:43:59.537Z,1016.18
2019-04-28T12:45:03.986Z,1016.15
2019-04-28T12:46:08.455Z,1016.15
2019-04-28T12:47:12.823Z,1016.15
2019-04-28T12:48:17.141Z,1016.17
2019-04-28T12:49:21.610Z,1016.15
2019-04-28T12:50:25.900Z,1016.15
2019-04-28T12:51:30.313Z,1016.17
2019-04-28T12:52:34.635Z,1016.18
2019-04-28T12:53:39.028Z,1016.21
2019-04-28T12:54:44.726Z,1016.21
2019-04-28T12:55:47.744Z,1016.23
2019-04-28T12:56:52.100Z,1016.25
2019-04-28T12:57:56.461Z,1016.27